Highest pressure

Not for real navigation. The accuracy of this data is not assured See disclaimer for more information



ICAO NAME COUNTRY WIND Kt GUST Kt VIS m TEMP/DEW C BARO METAR
SLPO Potosi Bolivia 0 0 9999 4/4 30.74 SLPO 191000Z 00000KT 9999 SCT010 BKN200 04/04 Q1041
ETSH Holzdorf Germany 3 0 4500 -7/-8 30.71 ETSH 191020Z VRB03KT 4500 BR BKN005 M07/M08 Q1040 YLO YLO
EPZG Zielona Gora Poland 4 0 4500 -6/-6 30.71 EPZG 191000Z 18004KT 140V220 4500 -SN BR OVC005 M06/M06 Q1040
LRIA Iasi Romania 3 0 6000 -8/-11 30.71 LRIA 191000Z 28003KT 6000 NSC M08/M11 Q1040 RMK R14/09//95
EPWR Wroclaw Ii Poland 4 0 4800 -7/-8 30.71 EPWR 191000Z 16004KT 4800 BR OVC006 M07/M08 Q1040

Show more